Time;durP1;ratioP1;P1;durP2;ratioP2;P2;SDS_P1;SDS_P2;PMS_P1;PMS_P2;Temp;Humidity;BMP_temperature;BMP_pressure;BME280_temperature;BME280_humidity;BME280_pressure;Samples;Min_cycle;Max_cycle;Signal;HPM_P1;HPM_P2
2023/12/18 00:00:47;;;;;;;9.07;4.82;;;2.00;99.90;;;1.99;100.00;102615.59;4876076;28;24488;-68
2023/12/18 00:03:10;;;;;;;5.13;3.75;;;2.00;99.90;;;2.05;100.00;102617.25;4863387;28;24455;-65
2023/12/18 00:05:32;;;;;;;7.65;3.78;;;2.00;99.90;;;2.04;100.00;102613.84;4875900;28;24880;-66
2023/12/18 00:07:54;;;;;;;4.20;2.45;;;2.00;99.90;;;1.91;100.00;102612.19;4874103;28;24435;-65
2023/12/18 00:10:16;;;;;;;6.63;3.67;;;2.00;99.90;;;1.91;100.00;102608.75;4876173;28;24586;-66
2023/12/18 00:12:38;;;;;;;4.60;2.20;;;1.90;99.90;;;1.91;100.00;102613.91;4873816;28;24458;-65
2023/12/18 00:15:00;;;;;;;5.95;3.30;;;1.90;99.90;;;1.76;100.00;102611.41;4875197;28;24679;-66
2023/12/18 00:17:22;;;;;;;5.05;3.30;;;1.90;99.90;;;1.81;100.00;102602.78;4880454;28;24475;-66
2023/12/18 00:19:44;;;;;;;6.28;3.83;;;1.90;99.90;;;1.84;100.00;102597.63;4876687;28;24430;-66
2023/12/18 00:22:06;;;;;;;6.65;3.60;;;1.90;99.90;;;1.84;100.00;102600.22;4875093;28;24443;-67
2023/12/18 00:24:28;;;;;;;6.00;4.05;;;1.90;99.90;;;1.83;100.00;102601.06;4869602;28;24431;-66
2023/12/18 00:26:50;;;;;;;7.95;3.67;;;1.80;99.90;;;1.82;100.00;102591.63;4875832;28;24499;-65
2023/12/18 00:29:11;;;;;;;12.43;5.75;;;1.90;99.90;;;1.87;100.00;102584.75;4867275;28;24539;-67
2023/12/18 00:31:33;;;;;;;1.98;1.77;;;1.90;99.90;;;1.81;100.00;102592.50;4874381;28;24423;-67
2023/12/18 00:33:55;;;;;;;8.75;4.53;;;1.90;99.90;;;1.89;100.00;102582.16;4870927;28;24943;-65
2023/12/18 00:36:17;;;;;;;8.70;4.43;;;1.90;99.90;;;1.88;100.00;102588.16;4866003;28;24529;-65
2023/12/18 00:38:41;;;;;;;9.48;4.63;;;1.90;99.90;;;1.89;100.00;102590.75;4875368;28;24426;-66
2023/12/18 00:41:03;;;;;;;11.73;5.70;;;1.90;99.90;;;1.93;100.00;102589.00;4873924;28;24431;-66
2023/12/18 00:43:25;;;;;;;8.52;5.13;;;1.90;99.90;;;1.96;100.00;102579.53;4876268;28;24455;-65
2023/12/18 00:45:47;;;;;;;11.05;5.30;;;1.90;99.90;;;2.03;100.00;102575.22;4876924;28;24458;-65
2023/12/18 00:48:09;;;;;;;10.23;5.70;;;2.00;99.90;;;2.11;100.00;102581.16;4876781;28;24430;-65
2023/12/18 00:50:31;;;;;;;10.73;5.38;;;2.00;99.90;;;2.16;100.00;102577.72;4876186;28;24972;-65
2023/12/18 00:52:53;;;;;;;10.77;5.25;;;2.10;99.90;;;2.11;100.00;102576.00;4874469;28;24521;-65
2023/12/18 00:55:15;;;;;;;8.85;4.80;;;2.10;99.90;;;2.12;100.00;102578.59;4876831;28;24432;-65
2023/12/18 00:57:37;;;;;;;9.13;4.80;;;2.10;99.90;;;2.19;100.00;102571.69;4875666;28;24446;-65
2023/12/18 01:00:00;;;;;;;7.57;4.05;;;2.10;99.90;;;2.21;100.00;102569.97;4873403;28;24423;-65
2023/12/18 01:02:22;;;;;;;9.60;5.22;;;2.20;99.90;;;2.22;100.00;102569.06;4872621;28;24550;-66
2023/12/18 01:04:44;;;;;;;8.65;3.40;;;2.10;99.90;;;2.17;100.00;102561.38;4875704;28;24473;-66
2023/12/18 01:07:06;;;;;;;4.80;3.00;;;2.20;99.90;;;2.12;100.00;102564.88;4872827;28;24446;-66
2023/12/18 01:09:28;;;;;;;5.43;3.17;;;2.10;99.90;;;2.07;100.00;102559.72;4874147;28;24519;-66
2023/12/18 01:11:50;;;;;;;7.85;3.88;;;2.10;99.90;;;2.05;100.00;102558.03;4871810;28;24443;-66
2023/12/18 01:14:12;;;;;;;10.32;5.15;;;2.10;99.90;;;2.14;100.00;102560.56;4867331;28;25007;-66
2023/12/18 01:16:34;;;;;;;10.93;5.18;;;2.10;99.90;;;2.21;100.00;102568.25;4865668;28;24467;-66
2023/12/18 01:18:56;;;;;;;12.10;6.28;;;2.20;99.90;;;2.25;100.00;102559.63;4874561;28;25000;-66
2023/12/18 01:21:18;;;;;;;10.70;5.85;;;2.20;99.90;;;2.22;100.00;102569.06;4870543;28;25555;-65
2023/12/18 01:23:40;;;;;;;13.45;5.80;;;2.20;99.90;;;2.19;100.00;102567.38;4864089;28;24463;-66
2023/12/18 01:26:02;;;;;;;11.27;6.00;;;2.20;99.90;;;2.29;100.00;102558.72;4874336;28;25015;-66
2023/12/18 01:28:24;;;;;;;11.00;5.43;;;2.20;99.90;;;2.40;100.00;102557.78;4879475;28;24434;-67
2023/12/18 01:30:46;;;;;;;9.93;5.80;;;2.30;99.90;;;2.40;100.00;102553.50;4875293;28;25017;-66
2023/12/18 01:33:08;;;;;;;9.52;5.50;;;2.40;99.90;;;2.43;100.00;102552.63;4875248;28;24484;-66
2023/12/18 01:35:30;;;;;;;11.32;5.60;;;2.40;99.90;;;2.34;100.00;102544.06;4868672;28;24543;-66
2023/12/18 01:37:52;;;;;;;10.98;5.30;;;2.40;99.90;;;2.38;100.00;102549.22;4871410;28;25180;-65
2023/12/18 01:40:15;;;;;;;12.05;6.00;;;2.30;99.90;;;2.38;100.00;102542.34;4873599;28;24527;-66
2023/12/18 01:42:37;;;;;;;13.63;6.13;;;2.40;99.90;;;2.45;100.00;102554.28;4872023;28;24817;-66
2023/12/18 01:44:59;;;;;;;13.85;6.15;;;2.40;99.90;;;2.43;100.00;102548.31;4872621;28;25000;-66
2023/12/18 01:47:21;;;;;;;9.83;5.60;;;2.40;99.90;;;2.32;100.00;102553.53;4874743;28;24502;-66
2023/12/18 01:49:44;;;;;;;7.30;4.13;;;2.40;99.90;;;2.38;100.00;102553.47;4874718;28;24507;-66
2023/12/18 01:52:06;;;;;;;12.80;6.00;;;2.30;99.90;;;2.49;100.00;102550.84;4871401;28;24475;-66
2023/12/18 01:54:28;;;;;;;13.50;6.45;;;2.40;99.90;;;2.54;100.00;102556.81;4868480;28;25099;-66
2023/12/18 01:56:54;;;;;;;12.10;5.85;;;2.50;99.90;;;2.58;100.00;102544.78;4874110;28;24431;-67
2023/12/18 01:59:16;;;;;;;14.02;6.75;;;2.50;99.90;;;2.55;100.00;102548.22;4873981;28;24510;-65
2023/12/18 02:01:38;;;;;;;12.93;5.60;;;2.50;99.90;;;2.51;100.00;102538.81;4848972;28;24527;-65
2023/12/18 02:04:00;;;;;;;9.23;5.18;;;2.50;99.90;;;2.61;100.00;102542.16;4872639;28;24451;-66
2023/12/18 02:06:23;;;;;;;13.25;6.78;;;2.50;99.90;;;2.69;100.00;102548.94;4848107;28;25034;-65
2023/12/18 02:08:45;;;;;;;13.90;6.57;;;2.60;99.90;;;2.77;100.00;102530.84;4870322;28;24794;-66
2023/12/18 02:11:07;;;;;;;11.63;5.40;;;2.70;99.90;;;2.73;100.00;102534.28;4867564;28;24447;-65
2023/12/18 02:13:29;;;;;;;13.33;6.50;;;2.70;99.90;;;2.71;100.00;102538.59;4872254;28;24458;-65
2023/12/18 02:15:51;;;;;;;16.60;6.72;;;2.70;99.90;;;2.71;100.00;102539.47;4869234;28;24523;-66
2023/12/18 02:18:13;;;;;;;14.27;7.15;;;2.70;99.90;;;2.80;100.00;102531.66;4868910;28;24469;-66
2023/12/18 02:20:35;;;;;;;10.98;5.75;;;2.70;99.90;;;2.81;100.00;102530.78;4868708;28;24981;-66
2023/12/18 02:22:57;;;;;;;11.07;6.13;;;2.70;99.90;;;2.80;100.00;102534.22;4871650;28;24457;-66
2023/12/18 02:25:21;;;;;;;16.10;7.28;;;2.70;99.90;;;2.89;100.00;102534.16;4873848;28;24427;-66
2023/12/18 02:27:50;;;;;;;17.13;7.80;;;2.80;99.90;;;2.98;100.00;102538.34;4871518;28;24529;-66
2023/12/18 02:30:17;;;;;;;12.20;7.10;;;2.90;99.90;;;2.94;100.00;102537.50;4873092;28;24423;-66
2023/12/18 02:32:39;;;;;;;19.47;7.70;;;2.90;99.90;;;2.98;100.00;102539.19;4871995;28;24526;-66
2023/12/18 02:35:01;;;;;;;15.73;7.32;;;2.90;99.90;;;3.03;100.00;102541.72;4874749;28;24964;-66
2023/12/18 02:37:24;;;;;;;13.93;6.75;;;2.90;99.90;;;3.05;100.00;102527.94;4871476;28;24969;-65
2023/12/18 02:39:46;;;;;;;15.02;6.65;;;3.00;99.90;;;3.00;100.00;102524.53;4874377;28;25015;-66
2023/12/18 02:42:08;;;;;;;17.77;7.80;;;2.90;99.90;;;3.05;100.00;102527.94;4871177;28;24526;-66
2023/12/18 02:44:30;;;;;;;15.70;7.32;;;2.90;99.90;;;3.08;100.00;102530.50;4871944;28;24455;-65
2023/12/18 02:46:52;;;;;;;15.07;7.28;;;3.00;99.90;;;3.06;100.00;102518.50;4873646;28;24505;-66
2023/12/18 02:49:14;;;;;;;13.57;6.30;;;3.00;99.90;;;3.02;100.00;102515.06;4869212;28;24449;-66
2023/12/18 02:51:36;;;;;;;14.68;6.72;;;3.00;99.90;;;3.01;100.00;102513.38;4872738;28;24442;-65
2023/12/18 02:53:58;;;;;;;15.23;7.00;;;3.00;99.90;;;3.04;100.00;102515.06;4878233;28;24450;-66
2023/12/18 02:56:20;;;;;;;12.70;6.63;;;2.90;99.90;;;3.09;100.00;102514.13;4869338;28;24528;-65
2023/12/18 02:58:42;;;;;;;16.33;7.38;;;3.00;99.90;;;2.87;100.00;102517.84;4869894;28;24423;-66
2023/12/18 03:01:04;;;;;;;12.33;5.50;;;3.00;99.90;;;2.88;100.00;102516.09;4872718;28;24485;-66
2023/12/18 03:03:26;;;;;;;11.88;6.60;;;2.90;99.90;;;2.86;100.00;102512.69;4873302;28;25107;-66
2023/12/18 03:05:48;;;;;;;17.23;6.67;;;2.80;99.90;;;2.88;100.00;102505.78;4851603;28;24439;-66
2023/12/18 03:08:10;;;;;;;12.60;6.10;;;2.90;99.90;;;2.91;100.00;102514.34;4870650;28;25014;-66
2023/12/18 03:10:32;;;;;;;14.82;7.10;;;2.90;99.90;;;2.95;100.00;102510.00;4872432;28;24437;-66
2023/12/18 03:12:54;;;;;;;13.32;6.43;;;2.90;99.90;;;2.93;100.00;102504.88;4868172;28;24566;-66
2023/12/18 03:15:16;;;;;;;9.45;5.05;;;2.90;99.90;;;2.94;100.00;102504.00;4867587;28;24534;-65
2023/12/18 03:17:38;;;;;;;14.10;6.40;;;2.90;99.90;;;2.94;100.00;102506.56;4868137;28;24450;-65
2023/12/18 03:20:00;;;;;;;15.52;7.45;;;2.90;99.90;;;2.94;100.00;102501.41;4873112;28;24438;-65
2023/12/18 03:22:22;;;;;;;12.38;6.47;;;2.90;99.90;;;2.98;100.00;102497.94;4868599;28;20811;-65
2023/12/18 03:24:44;;;;;;;14.80;7.25;;;2.90;99.90;;;2.95;100.00;102504.84;4868875;28;24451;-66
2023/12/18 03:27:06;;;;;;;14.10;6.70;;;2.90;99.90;;;2.98;100.00;102505.66;4872974;28;24540;-65
2023/12/18 03:29:28;;;;;;;14.45;7.10;;;3.00;99.90;;;2.99;100.00;102506.53;4873378;28;24434;-66
2023/12/18 03:31:50;;;;;;;13.10;6.95;;;3.00;99.90;;;3.02;100.00;102514.25;4865940;28;24882;-67
2023/12/18 03:34:12;;;;;;;15.13;7.88;;;3.00;99.90;;;3.00;100.00;102513.41;4869170;28;24527;-65
2023/12/18 03:36:34;;;;;;;15.18;7.60;;;3.00;99.90;;;2.96;100.00;102511.72;4876641;28;24485;-66
2023/12/18 03:38:56;;;;;;;12.52;6.55;;;2.90;99.90;;;2.87;100.00;102494.63;4873852;28;24447;-66
2023/12/18 03:41:17;;;;;;;14.60;6.60;;;2.90;99.90;;;2.87;100.00;102497.22;4876698;28;24477;-66
2023/12/18 03:43:39;;;;;;;15.02;7.22;;;2.80;99.90;;;2.95;100.00;102505.72;4876597;28;24884;-66
2023/12/18 03:46:01;;;;;;;17.58;8.73;;;2.90;99.90;;;2.85;100.00;102506.69;4875278;28;24443;-66
2023/12/18 03:48:23;;;;;;;14.93;6.72;;;2.90;99.90;;;2.92;100.00;102510.88;4877039;28;24481;-66
2023/12/18 03:50:46;;;;;;;18.67;7.90;;;2.90;99.90;;;3.00;100.00;102510.81;4873874;28;25054;-66
2023/12/18 03:53:08;;;;;;;17.80;8.30;;;2.90;99.90;;;2.98;100.00;102515.97;4877576;28;24493;-66
2023/12/18 03:55:30;;;;;;;20.17;8.65;;;3.00;99.90;;;3.02;100.00;102507.34;4876824;28;24431;-66
2023/12/18 03:57:53;;;;;;;15.93;8.40;;;2.90;99.90;;;3.05;100.00;102515.03;4871518;28;24447;-66
2023/12/18 04:00:16;;;;;;;15.80;8.00;;;2.90;99.90;;;3.05;100.00;102509.88;4876802;28;24470;-66
2023/12/18 04:02:38;;;;;;;14.27;7.90;;;3.00;99.90;;;3.09;100.00;102508.97;4876065;28;24450;-66
2023/12/18 04:05:00;;;;;;;19.08;8.40;;;3.00;99.90;;;3.15;100.00;102502.91;4873871;28;24568;-66
2023/12/18 04:07:22;;;;;;;15.95;7.70;;;3.00;99.90;;;3.18;100.00;102500.28;4877139;28;24987;-65
2023/12/18 04:09:44;;;;;;;15.02;7.20;;;3.10;99.90;;;3.14;100.00;102503.78;4875127;28;24430;-66
2023/12/18 04:12:06;;;;;;;15.57;7.20;;;3.10;99.90;;;3.06;100.00;102506.47;4875618;28;24431;-66
2023/12/18 04:14:28;;;;;;;16.10;7.80;;;3.10;99.90;;;3.12;100.00;102500.34;4875760;28;24937;-66
2023/12/18 04:16:50;;;;;;;14.65;7.30;;;3.10;99.90;;;3.08;100.00;102496.97;4874134;28;24538;-66
2023/12/18 04:19:12;;;;;;;14.40;7.15;;;3.00;99.90;;;3.05;100.00;102493.56;4868896;28;24470;-66
2023/12/18 04:21:34;;;;;;;14.10;6.70;;;3.00;99.90;;;3.02;100.00;102491.84;4873195;28;24497;-65
2023/12/18 04:23:56;;;;;;;16.30;7.30;;;3.10;99.90;;;2.95;100.00;102479.06;4875790;28;24487;-66
2023/12/18 04:26:18;;;;;;;19.37;7.50;;;3.00;99.90;;;2.89;100.00;102499.78;4871234;28;24443;-66
2023/12/18 04:28:40;;;;;;;18.25;8.57;;;2.90;99.90;;;2.94;100.00;102498.84;4871831;28;24847;-66
2023/12/18 04:31:02;;;;;;;17.58;8.32;;;2.90;99.90;;;2.97;100.00;102498.81;4874898;28;25365;-66
2023/12/18 04:33:24;;;;;;;11.10;6.28;;;2.90;99.90;;;2.88;100.00;102505.78;4867384;28;24475;-66
2023/12/18 04:35:46;;;;;;;20.98;9.05;;;2.90;99.90;;;2.91;100.00;102510.91;4873035;28;24523;-65
2023/12/18 04:38:08;;;;;;;15.13;6.82;;;2.80;99.90;;;2.95;100.00;102508.28;4871120;28;24530;-66
2023/12/18 04:40:30;;;;;;;17.27;7.70;;;2.90;99.90;;;2.99;100.00;102501.38;4874755;28;25136;-66
2023/12/18 04:42:53;;;;;;;14.88;7.40;;;3.00;99.90;;;3.05;100.00;102507.31;4873487;28;24497;-66
2023/12/18 04:45:15;;;;;;;14.57;8.18;;;3.00;99.90;;;3.05;100.00;102498.72;4875927;28;24988;-66
2023/12/18 04:47:37;;;;;;;17.75;7.80;;;3.00;99.90;;;3.01;100.00;102495.31;4876377;28;24585;-65
2023/12/18 04:49:59;;;;;;;16.23;7.88;;;3.00;99.90;;;3.02;100.00;102494.44;4872461;28;24445;-66
2023/12/18 04:52:21;;;;;;;14.75;7.45;;;3.00;99.90;;;2.95;100.00;102487.66;4866978;28;24493;-66
2023/12/18 04:54:43;;;;;;;20.00;8.60;;;3.00;99.90;;;2.95;100.00;102485.09;4875539;28;24554;-64
2023/12/18 04:57:06;;;;;;;14.03;7.23;;;3.00;99.90;;;2.92;100.00;102477.38;4875498;28;24463;-65
2023/12/18 04:59:28;;;;;;;24.60;10.00;;;2.90;99.90;;;2.98;100.00;102477.28;4868102;28;25091;-65
2023/12/18 05:01:49;;;;;;;20.75;9.40;;;2.90;99.90;;;3.05;100.00;102488.41;4874534;28;24458;-66
2023/12/18 05:04:11;;;;;;;18.52;8.30;;;2.90;99.90;;;3.03;100.00;102483.25;4875029;28;24534;-65
2023/12/18 05:06:33;;;;;;;16.10;7.95;;;3.00;99.90;;;3.09;100.00;102480.59;4871314;28;25090;-66
2023/12/18 05:08:56;;;;;;;23.10;10.80;;;3.10;99.90;;;3.11;100.00;102478.84;4875145;28;24458;-66
2023/12/18 05:11:23;;;;;;;24.30;10.93;;;3.10;99.90;;;3.17;100.00;102481.34;4871954;28;24451;-66
2023/12/18 05:13:45;;;;;;;23.13;10.60;;;3.10;99.90;;;3.26;100.00;102487.31;4874376;28;24437;-65
2023/12/18 05:16:07;;;;;;;26.10;11.80;;;3.10;99.90;;;3.33;100.00;102489.78;4870641;28;24595;-65
2023/12/18 05:18:29;;;;;;;18.27;9.18;;;3.20;99.90;;;3.37;100.00;102486.28;4872502;28;24542;-65
2023/12/18 05:20:53;;;;;;;19.08;9.20;;;3.20;99.90;;;3.32;100.00;102482.94;4872363;28;24495;-65
2023/12/18 05:23:15;;;;;;;18.55;8.15;;;3.30;99.90;;;3.29;100.00;102474.34;4874588;28;24560;-65
2023/12/18 05:25:37;;;;;;;19.58;9.13;;;3.30;99.90;;;3.24;100.00;102483.88;4878275;28;24462;-65
2023/12/18 05:27:58;;;;;;;18.25;9.25;;;3.20;99.90;;;3.26;100.00;102482.16;4876371;28;24965;-66
2023/12/18 05:30:21;;;;;;;20.77;8.55;;;3.20;99.90;;;3.23;100.00;102495.94;4873731;28;24471;-66
2023/12/18 05:32:43;;;;;;;16.02;7.95;;;3.20;99.90;;;3.21;100.00;102483.91;4875553;28;24427;-66
2023/12/18 05:35:05;;;;;;;16.73;8.15;;;3.20;99.90;;;3.27;100.00;102494.16;4874724;28;25003;-66
2023/12/18 05:37:28;;;;;;;18.10;8.20;;;3.20;99.90;;;3.21;100.00;102491.66;4870981;28;24474;-66
2023/12/18 05:39:50;;;;;;;10.90;6.10;;;3.20;99.90;;;3.21;100.00;102486.50;4874974;28;24431;-65
2023/12/18 05:42:15;;;;;;;12.63;5.78;;;3.20;99.90;;;3.20;100.00;102490.78;4872273;28;24482;-66
2023/12/18 05:44:37;;;;;;;15.57;8.10;;;3.20;99.90;;;3.22;100.00;102493.34;4873222;28;25045;-64
2023/12/18 05:46:59;;;;;;;14.48;7.68;;;3.10;99.90;;;3.13;100.00;102479.69;4872784;28;24992;-65
2023/12/18 05:49:21;;;;;;;18.95;8.77;;;3.10;99.90;;;3.16;100.00;102489.13;4874488;28;24519;-64
2023/12/18 05:51:43;;;;;;;17.30;8.80;;;3.10;99.90;;;3.21;100.00;102499.41;4864527;28;24525;-65
2023/12/18 05:54:05;;;;;;;17.80;7.97;;;3.10;99.90;;;3.15;100.00;102493.44;4872859;28;24500;-66
2023/12/18 05:56:27;;;;;;;24.20;11.32;;;3.20;99.90;;;3.22;100.00;102488.19;4874097;28;24481;-65
2023/12/18 05:58:49;;;;;;;20.60;10.02;;;3.10;99.90;;;3.26;100.00;102487.31;4872038;28;24534;-65
2023/12/18 06:01:11;;;;;;;14.50;6.50;;;3.10;99.90;;;3.27;100.00;102484.69;4872533;28;24566;-65
2023/12/18 06:03:33;;;;;;;16.73;7.22;;;3.20;99.90;;;3.31;100.00;102485.50;4869865;28;24881;-65
2023/12/18 06:05:55;;;;;;;12.90;6.68;;;3.20;99.90;;;3.31;100.00;102488.09;4874018;28;24458;-66
2023/12/18 06:08:17;;;;;;;17.02;7.80;;;3.20;99.90;;;3.24;100.00;102486.47;4865000;28;24423;-66
2023/12/18 06:10:38;;;;;;;16.17;8.10;;;3.20;99.90;;;3.21;100.00;102487.34;4873092;28;24793;-66
2023/12/18 06:13:00;;;;;;;17.73;8.00;;;3.20;99.90;;;3.26;100.00;102487.31;4871889;28;24588;-66
2023/12/18 06:15:22;;;;;;;19.55;9.27;;;3.20;99.90;;;3.30;100.00;102491.56;4875155;28;24519;-66
2023/12/18 06:17:45;;;;;;;17.95;8.73;;;3.20;99.90;;;3.32;100.00;102492.38;4872007;28;24477;-68
2023/12/18 06:20:07;;;;;;;20.38;9.10;;;3.20;99.90;;;3.31;100.00;102490.66;4874532;28;24434;-66
2023/12/18 06:22:29;;;;;;;16.92;8.82;;;3.20;99.90;;;3.34;100.00;102495.78;4864415;28;24505;-66
2023/12/18 06:24:51;;;;;;;17.00;8.90;;;3.20;99.90;;;3.32;100.00;102490.66;4872909;28;24895;-66
2023/12/18 06:27:13;;;;;;;13.13;6.35;;;3.20;99.90;;;3.34;100.00;102493.22;4865625;28;25016;-64
2023/12/18 06:29:34;;;;;;;10.20;5.30;;;3.30;99.90;;;3.34;100.00;102495.78;4871183;28;24860;-65
2023/12/18 06:31:57;;;;;;;11.70;6.20;;;3.30;99.90;;;3.31;100.00;102488.94;4872552;28;24431;-65
2023/12/18 06:34:19;;;;;;;20.48;9.60;;;3.30;99.90;;;3.25;100.00;102485.59;4866736;28;25040;-64
2023/12/18 06:36:43;;;;;;;16.00;7.03;;;3.20;99.90;;;3.17;100.00;102487.41;4874835;28;24500;-68
2023/12/18 06:39:05;;;;;;;19.38;8.50;;;3.10;99.90;;;3.20;100.00;102489.94;4873003;28;24470;-66
2023/12/18 06:41:27;;;;;;;19.50;9.40;;;3.10;99.90;;;3.22;100.00;102488.19;4870382;28;25095;-66
2023/12/18 06:43:49;;;;;;;17.50;8.15;;;3.10;99.90;;;3.15;100.00;102490.03;4874044;28;24437;-64
2023/12/18 06:46:11;;;;;;;19.15;8.65;;;3.10;99.90;;;3.23;100.00;102495.06;4871222;28;24450;-67
2023/12/18 06:48:35;;;;;;;19.02;9.32;;;3.10;99.90;;;3.21;100.00;102496.81;4873179;28;24514;-67
2023/12/18 06:50:57;;;;;;;14.85;7.25;;;3.10;99.90;;;3.24;100.00;102496.78;4871394;28;24447;-65
2023/12/18 06:53:19;;;;;;;14.43;7.20;;;3.20;99.90;;;3.26;100.00;102492.47;4870011;28;24443;-66
2023/12/18 06:55:41;;;;;;;16.53;7.60;;;3.20;99.90;;;3.22;100.00;102494.22;4874035;28;24527;-65
2023/12/18 06:58:03;;;;;;;22.00;10.15;;;3.20;99.90;;;3.25;100.00;102498.47;4871335;28;24543;-66
2023/12/18 07:00:25;;;;;;;12.70;5.50;;;3.20;99.90;;;3.29;100.00;102506.16;4872863;28;24553;-66
2023/12/18 07:03:02;;;;;;;10.75;4.93;;;3.20;99.90;;;3.19;100.00;102496.84;4871243;28;25012;-66
2023/12/18 07:05:24;;;;;;;11.53;5.20;;;3.20;99.90;;;3.24;100.00;102502.78;4874061;28;25084;-67
2023/12/18 07:07:46;;;;;;;14.85;7.10;;;3.20;99.90;;;3.13;100.00;102502.91;4866699;28;24463;-65
2023/12/18 07:10:08;;;;;;;13.63;5.80;;;3.20;99.90;;;3.14;100.00;102502.06;4874704;28;24592;-67
2023/12/18 07:12:30;;;;;;;14.25;7.07;;;3.10;99.90;;;3.10;100.00;102502.09;4873027;28;24501;-66
2023/12/18 07:14:52;;;;;;;13.13;6.47;;;3.10;99.90;;;3.11;100.00;102504.66;4869718;28;24435;-66
2023/12/18 07:17:14;;;;;;;19.67;8.70;;;3.10;99.90;;;3.15;100.00;102510.66;4863293;28;24927;-67
2023/12/18 07:19:39;;;;;;;18.83;9.25;;;3.10;99.90;;;3.18;100.00;102505.44;4875792;28;25054;-66
2023/12/18 07:22:02;;;;;;;15.05;7.13;;;3.10;99.90;;;3.25;100.00;102506.22;4875613;28;24442;-67
2023/12/18 07:24:23;;;;;;;18.60;8.93;;;3.20;99.90;;;3.27;100.00;102513.06;4867210;28;24879;-67
2023/12/18 07:26:45;;;;;;;19.83;9.65;;;3.20;99.90;;;3.36;100.00;102506.94;4875036;28;24451;-67
2023/12/18 07:29:07;;;;;;;23.15;10.25;;;3.20;99.90;;;3.33;100.00;102514.72;4874024;28;24533;-67
2023/12/18 07:31:29;;;;;;;16.95;8.10;;;3.30;99.90;;;3.26;100.00;102505.38;4875367;28;24430;-65
2023/12/18 07:33:51;;;;;;;20.85;9.50;;;3.30;99.90;;;3.33;100.00;102506.97;4869234;28;24797;-64
2023/12/18 07:36:13;;;;;;;22.80;10.20;;;3.30;99.90;;;3.38;100.00;102498.31;4874298;28;24435;-66
2023/12/18 07:38:35;;;;;;;20.70;9.70;;;3.30;99.90;;;3.40;100.00;102504.31;4874462;28;24879;-65
2023/12/18 07:40:59;;;;;;;22.83;10.45;;;3.30;99.90;;;3.46;100.00;102501.66;4874967;28;25118;-67
2023/12/18 07:43:21;;;;;;;18.77;8.93;;;3.30;99.90;;;3.49;100.00;102495.59;4856224;28;24485;-66
2023/12/18 07:45:43;;;;;;;18.05;8.40;;;3.40;99.90;;;3.43;100.00;102491.34;4876428;28;24638;-66
2023/12/18 07:48:05;;;;;;;19.92;8.50;;;3.40;99.90;;;3.46;100.00;102482.72;4873411;28;24440;-64
2023/12/18 07:50:27;;;;;;;15.50;7.40;;;3.40;99.90;;;3.38;100.00;102481.97;4875856;28;24505;-65
2023/12/18 07:52:49;;;;;;;19.75;7.95;;;3.30;99.90;;;3.37;100.00;102490.56;4868096;28;24525;-65
2023/12/18 07:55:11;;;;;;;13.60;7.55;;;3.30;99.90;;;3.38;100.00;102489.72;4870439;28;24964;-65
2023/12/18 07:57:33;;;;;;;16.65;8.25;;;3.30;99.90;;;3.36;100.00;102476.00;4875510;28;24435;-66
2023/12/18 07:59:55;;;;;;;17.33;8.43;;;3.30;99.90;;;3.27;100.00;102476.09;4869854;28;24813;-65
2023/12/18 08:02:17;;;;;;;9.73;5.10;;;3.30;99.90;;;3.20;100.00;102483.06;4871271;28;24524;-68
2023/12/18 08:04:39;;;;;;;9.20;4.80;;;3.20;99.90;;;3.15;100.00;102482.28;4876261;28;25086;-64
2023/12/18 08:07:01;;;;;;;13.67;6.60;;;3.20;99.90;;;3.17;100.00;102479.66;4873839;28;24443;-66
2023/12/18 08:09:23;;;;;;;8.27;4.75;;;3.10;99.90;;;3.15;100.00;102482.28;4875665;28;24430;-66
2023/12/18 08:11:45;;;;;;;11.68;5.50;;;3.10;99.90;;;3.15;100.00;102488.25;4873340;28;24446;-66
2023/12/18 08:14:07;;;;;;;15.20;7.00;;;3.10;99.90;;;3.15;100.00;102482.28;4876235;28;24424;-67
2023/12/18 08:16:30;;;;;;;14.77;6.88;;;3.10;99.90;;;3.13;100.00;102497.75;4858260;28;24523;-66
2023/12/18 08:18:52;;;;;;;16.13;8.07;;;3.10;99.90;;;3.22;100.00;102496.78;4870359;28;24497;-67
2023/12/18 08:21:15;;;;;;;10.23;5.80;;;3.10;99.90;;;3.28;100.00;102501.03;4874870;28;24442;-69
2023/12/18 08:23:38;;;;;;;16.93;7.90;;;3.20;99.90;;;3.29;100.00;102493.28;4874207;28;24478;-64
2023/12/18 08:26:00;;;;;;;11.67;5.40;;;3.20;99.90;;;3.22;100.00;102499.38;4876483;28;25056;-66
2023/12/18 08:28:22;;;;;;;10.63;5.00;;;3.20;99.90;;;3.23;100.00;102493.34;4873426;28;24443;-64
2023/12/18 08:30:44;;;;;;;6.05;4.20;;;3.20;99.90;;;3.06;100.00;102474.66;4875707;28;24436;-64
2023/12/18 08:33:06;;;;;;;18.38;7.53;;;3.10;99.90;;;3.06;100.00;102496.13;4871551;28;25129;-65
2023/12/18 08:35:28;;;;;;;14.00;5.60;;;3.10;99.90;;;3.13;100.00;102496.91;4874475;28;25383;-65
2023/12/18 08:37:50;;;;;;;14.65;6.82;;;3.10;99.90;;;3.17;100.00;102507.16;4873301;28;24455;-63
2023/12/18 08:40:12;;;;;;;7.43;3.88;;;3.10;99.90;;;3.13;100.00;102513.22;4875979;28;24439;-64
2023/12/18 08:42:34;;;;;;;17.85;7.80;;;3.10;99.90;;;3.13;100.00;102505.50;4875116;28;25064;-65
2023/12/18 08:44:56;;;;;;;9.85;5.30;;;3.10;99.90;;;3.21;100.00;102507.13;4874171;28;24451;-64
2023/12/18 08:47:19;;;;;;;11.07;5.72;;;3.10;99.90;;;3.18;100.00;102500.28;4874715;28;24509;-66
2023/12/18 08:49:41;;;;;;;11.23;5.30;;;3.10;99.90;;;3.19;100.00;102501.13;4873602;28;24535;-65
2023/12/18 08:52:04;;;;;;;13.23;7.00;;;3.10;99.90;;;3.29;100.00;102498.44;4873404;28;25042;-68
2023/12/18 08:54:25;;;;;;;9.45;4.57;;;3.20;99.90;;;3.32;100.00;102485.50;4861240;28;24527;-65
2023/12/18 08:56:48;;;;;;;14.85;6.18;;;3.20;99.90;;;3.34;100.00;102488.91;4859736;28;24450;-64
2023/12/18 08:59:11;;;;;;;16.85;7.88;;;3.30;99.90;;;3.39;100.00;102504.31;4876887;28;20813;-65
2023/12/18 09:01:37;;;;;;;15.60;7.22;;;3.30;99.90;;;3.41;100.00;102492.28;4875421;28;24427;-65
2023/12/18 09:03:59;;;;;;;12.55;6.97;;;3.30;99.90;;;3.47;100.00;102481.88;4875956;28;24450;-65
2023/12/18 09:06:22;;;;;;;6.65;4.13;;;3.30;99.90;;;3.48;100.00;102491.28;4874709;28;24459;-65
2023/12/18 09:08:44;;;;;;;10.88;6.10;;;3.40;99.90;;;3.50;100.00;102492.13;4874693;28;24518;-66
2023/12/18 09:11:07;;;;;;;14.97;7.80;;;3.40;99.90;;;3.44;100.00;102485.34;4878308;28;24437;-64
2023/12/18 09:13:29;;;;;;;3.83;2.92;;;3.40;99.90;;;3.43;100.00;102478.44;4864818;28;24956;-65
2023/12/18 09:15:51;;;;;;;13.43;6.22;;;3.40;99.90;;;3.41;100.00;102476.78;4873666;28;24434;-67
2023/12/18 09:18:13;;;;;;;15.57;7.60;;;3.40;99.90;;;3.47;100.00;102476.69;4869069;28;24447;-64
2023/12/18 09:20:35;;;;;;;17.30;9.10;;;3.40;99.90;;;3.52;100.00;102467.16;4882116;28;24462;-66
2023/12/18 09:22:57;;;;;;;14.52;7.25;;;3.40;99.90;;;3.60;100.00;102473.09;4873617;28;24496;-66
2023/12/18 09:25:19;;;;;;;16.00;8.30;;;3.50;99.90;;;3.55;99.73;102469.69;4873238;28;24542;-66
2023/12/18 09:27:41;;;;;;;13.75;7.38;;;3.50;99.90;;;3.58;99.64;102474.81;4868420;28;25043;-62
2023/12/18 09:30:05;;;;;;;8.70;3.90;;;3.50;99.90;;;3.56;99.37;102471.38;4865863;28;25007;-66
2023/12/18 09:32:28;;;;;;;13.50;5.63;;;3.50;99.90;;;3.53;99.10;102454.25;4874102;28;24518;-66
2023/12/18 09:34:50;;;;;;;17.70;7.97;;;3.50;99.90;;;3.37;100.00;102460.47;4863622;28;24447;-65
2023/12/18 09:37:12;;;;;;;6.55;3.50;;;3.40;99.90;;;3.49;100.00;102459.47;4871458;28;24447;-66
2023/12/18 09:39:34;;;;;;;11.18;5.78;;;3.40;99.90;;;3.59;99.71;102455.88;4873756;28;24462;-68
2023/12/18 09:42:02;;;;;;;11.20;5.95;;;3.50;99.90;;;3.57;99.22;102462.78;4870187;28;24443;-65
2023/12/18 09:44:24;;;;;;;14.45;7.32;;;3.50;99.90;;;3.66;99.25;102463.50;4875345;28;24424;-65
2023/12/18 09:46:46;;;;;;;20.65;9.70;;;3.50;99.90;;;3.68;99.40;102463.50;4874611;28;24451;-65
2023/12/18 09:49:09;;;;;;;15.73;7.20;;;3.60;99.90;;;3.78;98.39;102462.47;4875254;28;24458;-66
2023/12/18 09:51:35;;;;;;;18.33;9.57;;;3.60;99.90;;;3.70;98.51;102464.31;4863571;28;25063;-64